Saint Clair Township, Michigan
Current Conditions -  °F | °C
As of 6:56 PM on Friday 31 Oct 2014 (Local Time) from KPHN Reporting Station
Light Rain Light Rain  
Wind Chill: 30°   Ceiling: 1200
Heat Index: 39°   Visibility: 7mi
Dew Point: 37°   Wind: 16mph
Humidity: 93%   Direction: 350°N
Pressure: 29.98"   Gusts: 23mph
Location:  42.858°N, 82.5493°W
Report Text: KPHN 312256Z AUTO 35014G20KT 7SM -RA OVC012 04/03 A2998 RMK AO2
Loading
Personal Weather Stations






























Interactive Weather Map
Tropical Storm Tracking
New forecast layout! Learn more

10-Day Weather Forecast

Advertisements
Track Severe Weather on mobile